Time;durP1;ratioP1;P1;durP2;ratioP2;P2;SDS_P1;SDS_P2;PMS_P1;PMS_P2;Temp;Humidity;BMP_temperature;BMP_pressure;BME280_temperature;BME280_humidity;BME280_pressure;Samples;Min_cycle;Max_cycle;Signal;HPM_P1;HPM_P2
2022/03/19 00:01:55;;;;;;;14.93;5.72;;;;;;;-2.34;67.52;147093.86;1706646;82;21037;-64
2022/03/19 00:04:22;;;;;;;9.78;4.87;;;;;;;-2.31;68.18;147100.30;1696847;84;21082;-58
2022/03/19 00:06:50;;;;;;;9.13;4.87;;;;;;;-2.28;68.30;147108.00;1711727;83;21092;-64
2022/03/19 00:09:17;;;;;;;15.32;4.37;;;;;;;-2.23;68.39;147119.56;1723521;82;21031;-65
2022/03/19 00:11:47;;;;;;;10.32;3.83;;;;;;;-2.19;68.36;147129.84;1714048;82;21045;-64
2022/03/19 00:14:16;;;;;;;8.93;3.70;;;;;;;-2.14;67.68;147142.67;1719269;82;21045;-63
2022/03/19 00:16:45;;;;;;;10.32;4.67;;;;;;;-2.10;66.67;147152.98;1723435;82;21048;-63
2022/03/19 00:19:13;;;;;;;9.53;4.22;;;;;;;-2.06;67.10;147163.27;1711513;83;21049;-63
2022/03/19 00:21:40;;;;;;;7.12;3.80;;;;;;;-2.05;67.18;147164.52;1711626;82;21080;-64
2022/03/19 00:24:08;;;;;;;6.03;3.35;;;;;;;-2.05;67.32;147165.83;1715664;82;21296;-63
2022/03/19 00:26:36;;;;;;;6.85;3.08;;;;;;;-2.03;66.99;147170.97;1719385;82;21056;-63
2022/03/19 00:29:04;;;;;;;6.58;3.20;;;;;;;-1.99;63.88;147178.66;1720895;82;21557;-64
2022/03/19 00:31:33;;;;;;;5.85;2.98;;;;;;;-1.93;63.42;147194.06;1717509;82;21035;-64
2022/03/19 00:34:00;;;;;;;6.87;2.90;;;;;;;-1.89;63.08;147204.34;1715579;82;21054;-63
2022/03/19 00:36:28;;;;;;;6.72;3.27;;;;;;;-1.86;60.28;147212.09;1718745;81;21518;-63
2022/03/19 00:38:56;;;;;;;8.23;3.42;;;;;;;-1.83;60.11;147219.80;1710776;83;21077;-63
2022/03/19 00:41:24;;;;;;;4.55;2.40;;;;;;;-1.82;59.78;147221.05;1715121;82;21080;-57
2022/03/19 00:43:51;;;;;;;7.72;2.52;;;;;;;-1.80;59.49;147227.50;1715512;82;21079;-64
2022/03/19 00:46:19;;;;;;;5.87;2.45;;;;;;;-1.76;58.95;147237.77;1711740;82;21084;-64
2022/03/19 00:48:47;;;;;;;4.60;2.65;;;;;;;-1.73;58.93;147245.47;1723389;81;21190;-63
2022/03/19 00:51:14;;;;;;;6.70;2.22;;;;;;;-1.68;58.29;147255.75;1710300;82;21017;-64
2022/03/19 00:53:42;;;;;;;4.75;2.22;;;;;;;-1.65;57.83;147263.50;1714016;82;21016;-57
2022/03/19 00:56:10;;;;;;;4.62;2.05;;;;;;;-1.65;57.17;147264.75;1710939;82;21021;-58
2022/03/19 00:58:37;;;;;;;5.92;2.70;;;;;;;-1.62;57.25;147271.20;1718505;82;21365;-58
2022/03/19 01:01:06;;;;;;;5.20;2.50;;;;;;;-1.60;57.46;147276.34;1714927;82;20922;-57
2022/03/19 01:03:35;;;;;;;5.28;2.80;;;;;;;-1.60;56.51;147276.34;1696928;84;21025;-60
2022/03/19 01:06:03;;;;;;;5.45;3.05;;;;;;;-1.59;56.44;147278.91;1719573;82;21022;-57
2022/03/19 01:08:32;;;;;;;4.37;2.35;;;;;;;-1.60;56.68;147276.34;1719217;82;21482;-57
2022/03/19 01:11:02;;;;;;;7.08;2.50;;;;;;;-1.62;55.88;147272.47;1723848;81;20946;-57
2022/03/19 01:13:29;;;;;;;5.45;2.80;;;;;;;-1.63;56.36;147268.64;1719152;82;22156;-57
2022/03/19 01:15:57;;;;;;;10.55;2.55;;;;;;;-1.66;56.26;147260.87;1711697;82;21036;-57
2022/03/19 01:18:26;;;;;;;4.45;2.37;;;;;;;-1.67;57.16;147258.31;1711128;82;21077;-57
2022/03/19 01:20:53;;;;;;;6.50;3.47;;;;;;;-1.70;57.42;147250.61;1714710;82;21105;-59
2022/03/19 01:23:21;;;;;;;6.62;3.10;;;;;;;-1.72;57.86;147246.78;1717790;82;21425;-59
2022/03/19 01:25:48;;;;;;;5.10;2.67;;;;;;;-1.74;58.48;147242.91;1717377;82;21130;-58
2022/03/19 01:28:16;;;;;;;4.72;2.80;;;;;;;-1.75;58.84;147240.34;1711199;82;21065;-58
2022/03/19 01:30:43;;;;;;;5.37;3.08;;;;;;;-1.75;58.82;147240.34;1713757;82;21156;-57
2022/03/19 01:33:10;;;;;;;6.42;3.02;;;;;;;-1.76;59.18;147237.77;1710198;82;21120;-58
2022/03/19 01:35:38;;;;;;;8.73;2.85;;;;;;;-1.76;59.76;147237.77;1707173;83;21094;-58
2022/03/19 01:38:05;;;;;;;6.78;2.80;;;;;;;-1.75;60.34;147240.34;1678651;83;21259;-59
2022/03/19 01:40:35;;;;;;;5.78;3.08;;;;;;;-1.73;60.63;147245.47;1690728;83;21044;-58
2022/03/19 01:43:03;;;;;;;5.12;2.45;;;;;;;-1.71;60.41;147248.03;1682295;83;20974;-57
2022/03/19 01:45:32;;;;;;;5.22;2.90;;;;;;;-1.72;59.78;147246.78;1676812;83;21441;-57
2022/03/19 01:47:59;;;;;;;6.08;3.00;;;;;;;-1.72;59.66;147246.78;1705483;83;21010;-57
2022/03/19 01:50:27;;;;;;;4.12;2.27;;;;;;;-1.76;59.66;147236.52;1709471;83;21312;-57
2022/03/19 01:52:56;;;;;;;3.85;2.42;;;;;;;-1.79;60.02;147230.06;1689094;83;21046;-57
2022/03/19 01:55:26;;;;;;;2.60;1.87;;;;;;;-1.80;60.01;147227.50;1699136;83;21082;-64
2022/03/19 01:57:56;;;;;;;6.05;2.30;;;;;;;-1.80;59.60;147227.50;1695218;83;20971;-64
2022/03/19 02:00:24;;;;;;;2.50;1.87;;;;;;;-1.81;59.24;147223.63;1695522;83;21014;-63
2022/03/19 02:02:53;;;;;;;4.05;2.40;;;;;;;-1.84;59.07;147215.92;1679797;83;21522;-63
2022/03/19 02:05:22;;;;;;;3.20;1.82;;;;;;;-1.88;59.04;147206.91;1702543;83;21064;-64
2022/03/19 02:07:50;;;;;;;3.37;2.20;;;;;;;-1.88;59.12;147208.22;1659772;84;21739;-64
2022/03/19 02:10:18;;;;;;;6.30;2.27;;;;;;;-1.87;59.61;147209.53;1711574;83;20996;-63
2022/03/19 02:12:48;;;;;;;4.12;2.17;;;;;;;-1.88;59.57;147208.22;1696905;83;21083;-65
2022/03/19 02:15:15;;;;;;;4.22;1.98;;;;;;;-1.88;59.85;147206.91;1682150;83;21147;-64
2022/03/19 02:17:43;;;;;;;5.35;2.15;;;;;;;-1.90;59.03;147201.77;1701581;83;21605;-64
2022/03/19 02:20:12;;;;;;;3.33;2.20;;;;;;;-1.92;59.08;147196.64;1677151;83;20968;-63
2022/03/19 02:22:41;;;;;;;3.60;2.05;;;;;;;-1.93;59.21;147195.38;1709540;83;21109;-64
2022/03/19 02:27:58;;;;;;;3.45;2.00;;;;;;;-1.94;59.83;147192.81;1697942;83;21240;-57
2022/03/19 02:30:25;;;;;;;4.33;2.25;;;;;;;-1.92;60.03;147196.64;1712593;83;21061;-58
2022/03/19 02:32:53;;;;;;;3.90;2.17;;;;;;;-1.91;60.42;147200.52;1681469;83;21052;-57
2022/03/19 02:35:20;;;;;;;4.85;2.55;;;;;;;-1.90;60.73;147201.77;1717092;82;21143;-58
2022/03/19 02:37:53;;;;;;;3.85;2.33;;;;;;;-1.91;61.02;147200.52;1711534;82;21124;-57
2022/03/19 02:40:21;;;;;;;3.40;1.98;;;;;;;-1.91;60.53;147199.20;1719445;82;21076;-58
2022/03/19 02:42:54;;;;;;;5.33;1.90;;;;;;;-1.92;59.77;147197.94;1710240;82;21069;-57
2022/03/19 02:45:22;;;;;;;7.67;2.40;;;;;;;-1.95;59.72;147188.94;1706567;82;21251;-58
2022/03/19 02:47:59;;;;;;;10.32;2.17;;;;;;;-1.97;59.27;147183.80;1711905;82;21458;-58
2022/03/19 02:50:34;;;;;;;4.75;2.22;;;;;;;-1.98;59.28;147181.23;1706081;82;21100;-58
2022/03/19 02:53:06;;;;;;;4.33;2.10;;;;;;;-2.01;58.69;147174.78;1710181;82;21548;-57
2022/03/19 02:55:35;;;;;;;4.22;1.82;;;;;;;-2.04;58.87;147168.39;1715497;82;21012;-57
2022/03/19 02:58:03;;;;;;;6.47;3.25;;;;;;;-2.03;58.70;147169.66;1715949;82;21006;-62
2022/03/19 03:00:31;;;;;;;3.77;2.20;;;;;;;-2.04;59.37;147168.39;1722109;81;21076;-63
2022/03/19 03:02:58;;;;;;;3.92;2.02;;;;;;;-2.02;59.87;147173.53;1719645;82;21536;-64
2022/03/19 03:05:26;;;;;;;4.62;2.55;;;;;;;-2.00;59.77;147176.09;1731140;82;21251;-65
2022/03/19 03:07:53;;;;;;;3.92;2.05;;;;;;;-2.03;59.52;147170.97;1716419;82;22260;-65
2022/03/19 03:10:21;;;;;;;3.00;2.15;;;;;;;-2.04;59.47;147168.39;1713078;82;21076;-64
2022/03/19 03:12:49;;;;;;;4.87;2.60;;;;;;;-2.04;59.23;147167.09;1706528;83;21085;-64
2022/03/19 03:15:17;;;;;;;5.47;2.22;;;;;;;-2.07;59.48;147159.39;1714377;82;21065;-64
2022/03/19 03:17:45;;;;;;;3.92;2.25;;;;;;;-2.07;59.59;147159.39;1709448;82;21053;-64
2022/03/19 03:20:13;;;;;;;5.65;2.30;;;;;;;-2.08;59.38;147158.12;1710307;82;21013;-58
2022/03/19 03:22:44;;;;;;;3.87;2.12;;;;;;;-2.08;59.88;147158.12;1715206;82;21313;-64
2022/03/19 03:25:11;;;;;;;5.67;2.33;;;;;;;-2.07;60.16;147160.69;1720083;82;21058;-58
2022/03/19 03:27:38;;;;;;;6.67;2.05;;;;;;;-2.04;60.95;147167.09;1711321;82;21053;-57
2022/03/19 03:30:07;;;;;;;5.33;2.52;;;;;;;-2.00;60.81;147176.09;1708048;82;20877;-58
2022/03/19 03:32:35;;;;;;;4.58;2.55;;;;;;;-1.99;60.43;147178.66;1712526;82;21055;-57
2022/03/19 03:35:06;;;;;;;8.78;2.80;;;;;;;-1.99;60.56;147178.66;1702325;82;21013;-57
2022/03/19 03:37:34;;;;;;;8.28;2.98;;;;;;;-2.00;60.73;147176.09;1702805;84;21008;-57
2022/03/19 03:40:02;;;;;;;5.72;3.15;;;;;;;-2.02;61.29;147173.53;1702584;84;21750;-57
2022/03/19 03:42:30;;;;;;;7.05;2.80;;;;;;;-2.03;61.84;147170.97;1703333;83;21069;-57
2022/03/19 03:44:59;;;;;;;5.12;2.70;;;;;;;-2.04;61.86;147168.39;1703664;84;21144;-59
2022/03/19 03:47:27;;;;;;;6.80;3.00;;;;;;;-2.05;61.62;147164.52;1703808;84;21077;-64
2022/03/19 03:49:55;;;;;;;7.15;2.83;;;;;;;-2.06;62.13;147163.27;1721906;83;21044;-64
2022/03/19 03:52:24;;;;;;;7.20;3.62;;;;;;;-2.05;62.61;147164.52;1652926;85;21419;-64
2022/03/19 03:54:52;;;;;;;5.50;3.02;;;;;;;-2.04;62.75;147168.39;1713670;83;21124;-63
2022/03/19 03:57:19;;;;;;;4.53;2.70;;;;;;;-2.05;62.69;147164.52;1714243;83;21048;-64
2022/03/19 03:59:49;;;;;;;5.00;2.62;;;;;;;-2.04;62.86;147168.39;1714052;83;21089;-64
2022/03/19 04:02:17;;;;;;;4.03;2.70;;;;;;;-2.04;62.36;147168.39;1714234;83;21561;-57
2022/03/19 04:04:46;;;;;;;8.25;2.75;;;;;;;-2.06;61.55;147163.27;1713754;83;21040;-64
2022/03/19 04:07:14;;;;;;;5.45;2.92;;;;;;;-2.07;61.96;147160.69;1714809;83;20932;-64
2022/03/19 04:09:41;;;;;;;6.35;2.75;;;;;;;-2.07;62.29;147160.69;1717928;83;21069;-64
2022/03/19 04:12:10;;;;;;;5.25;2.55;;;;;;;-2.08;62.99;147158.12;1717970;83;21064;-57
2022/03/19 04:14:37;;;;;;;5.33;2.85;;;;;;;-2.07;62.68;147160.69;1718214;83;21068;-63
2022/03/19 04:17:05;;;;;;;4.70;2.37;;;;;;;-2.08;62.54;147158.12;1716771;83;21088;-63
2022/03/19 04:19:32;;;;;;;5.15;2.72;;;;;;;-2.09;61.40;147155.56;1717160;82;22242;-63
2022/03/19 04:22:01;;;;;;;5.83;3.50;;;;;;;-2.10;61.37;147151.69;1718208;83;21081;-57
2022/03/19 04:24:28;;;;;;;5.97;2.87;;;;;;;-2.13;61.09;147145.25;1717941;83;21298;-57
2022/03/19 04:26:57;;;;;;;5.20;2.98;;;;;;;-2.13;61.41;147143.98;1719059;83;21286;-57
2022/03/19 04:29:24;;;;;;;5.35;3.08;;;;;;;-2.10;61.61;147152.98;1718581;83;21127;-57
2022/03/19 04:31:52;;;;;;;6.47;3.12;;;;;;;-2.09;61.72;147155.56;1718648;83;21881;-57
2022/03/19 04:34:19;;;;;;;5.45;3.00;;;;;;;-2.08;61.65;147158.12;1718134;83;21065;-57
2022/03/19 04:36:47;;;;;;;5.22;2.75;;;;;;;-2.06;61.91;147161.95;1716969;82;21098;-57
2022/03/19 04:39:14;;;;;;;6.03;2.90;;;;;;;-2.04;62.43;147167.09;1716830;82;21041;-64
2022/03/19 04:41:42;;;;;;;8.03;3.00;;;;;;;-2.01;62.79;147174.78;1717891;83;21080;-58
2022/03/19 04:44:11;;;;;;;7.53;3.27;;;;;;;-1.99;63.46;147178.66;1718366;83;21456;-61
2022/03/19 04:46:40;;;;;;;6.72;3.33;;;;;;;-1.99;64.04;147178.66;1718782;83;21016;-58
2022/03/19 04:49:09;;;;;;;5.90;3.10;;;;;;;-2.00;64.82;147176.09;1719539;83;21075;-60
2022/03/19 04:51:38;;;;;;;5.70;3.27;;;;;;;-2.05;65.63;147165.83;1716167;83;21060;-58
2022/03/19 04:54:07;;;;;;;7.00;3.70;;;;;;;-2.07;66.61;147160.69;1714096;83;21120;-57
2022/03/19 04:56:34;;;;;;;6.92;3.67;;;;;;;-2.10;66.99;147151.69;1713766;83;21493;-58
2022/03/19 04:59:05;;;;;;;8.43;3.80;;;;;;;-2.13;67.75;147143.98;1715435;83;21088;-57
2022/03/19 05:01:33;;;;;;;9.53;4.17;;;;;;;-2.20;68.19;147128.58;1714026;83;21060;-63
2022/03/19 05:04:02;;;;;;;7.90;3.83;;;;;;;-2.21;68.61;147124.70;1714130;83;21008;-57
2022/03/19 05:06:30;;;;;;;7.75;3.65;;;;;;;-2.24;68.58;147117.00;1714314;83;21456;-57
2022/03/19 05:11:44;;;;;;;6.75;3.17;;;;;;;-2.26;69.18;147111.87;1719463;83;21746;-65
2022/03/19 05:14:12;;;;;;;7.60;3.80;;;;;;;-2.26;68.83;147111.87;1718306;83;21047;-58
2022/03/19 05:16:40;;;;;;;8.25;3.50;;;;;;;-2.27;67.77;147110.56;1718100;83;21359;-57
2022/03/19 05:19:08;;;;;;;8.50;3.50;;;;;;;-2.27;67.71;147109.31;1710641;83;21088;-57
2022/03/19 05:21:37;;;;;;;6.42;3.30;;;;;;;-2.26;68.05;147111.87;1713718;83;21538;-58
2022/03/19 05:24:05;;;;;;;5.78;2.95;;;;;;;-2.26;67.84;147111.87;1716467;83;21517;-59
2022/03/19 05:26:35;;;;;;;8.70;3.10;;;;;;;-2.22;67.57;147122.14;1716491;82;21072;-64
2022/03/19 05:29:04;;;;;;;6.37;2.92;;;;;;;-2.19;67.38;147131.16;1715747;83;21376;-64
2022/03/19 05:31:31;;;;;;;6.87;3.67;;;;;;;-2.14;67.39;147142.67;1713880;83;21017;-64
2022/03/19 05:36:45;;;;;;;6.97;3.55;;;;;;;-2.08;66.90;147156.81;1718486;82;21005;-64
2022/03/19 05:39:14;;;;;;;6.08;3.40;;;;;;;-2.05;66.11;147164.52;1709898;82;21443;-64
2022/03/19 05:41:43;;;;;;;7.42;3.25;;;;;;;-1.97;66.32;147185.11;1712448;83;21092;-63
2022/03/19 05:44:12;;;;;;;8.25;3.50;;;;;;;-1.89;66.26;147204.34;1711631;83;21554;-64
2022/03/19 05:46:39;;;;;;;7.12;3.50;;;;;;;-1.80;66.26;147227.50;1713331;83;21910;-63
2022/03/19 05:49:07;;;;;;;6.12;3.08;;;;;;;-1.49;65.94;147304.59;1713817;83;21056;-64
2022/03/19 05:51:35;;;;;;;7.92;3.75;;;;;;;-1.06;63.51;147410.02;1712667;83;21318;-64
2022/03/19 05:54:05;;;;;;;7.25;3.40;;;;;;;-0.75;62.40;147487.20;1714238;83;21634;-64
2022/03/19 05:56:33;;;;;;;7.70;3.65;;;;;;;-0.58;61.03;147530.91;1714475;83;21139;-65
2022/03/19 05:59:00;;;;;;;10.60;4.00;;;;;;;-0.55;61.10;147537.34;1714234;83;21331;-63
2022/03/19 06:01:27;;;;;;;9.35;4.00;;;;;;;-0.52;61.17;147543.80;1714042;83;21049;-64
2022/03/19 06:03:56;;;;;;;7.90;3.87;;;;;;;-0.51;60.37;147546.37;1714289;83;21037;-64
2022/03/19 06:06:24;;;;;;;5.55;3.58;;;;;;;-0.49;60.44;147551.50;1714137;83;21419;-64
2022/03/19 06:08:53;;;;;;;9.45;3.80;;;;;;;-0.48;59.76;147554.08;1715552;83;20989;-64
2022/03/19 06:11:22;;;;;;;6.92;3.80;;;;;;;-0.54;59.50;147539.92;1712554;83;21104;-64
2022/03/19 06:13:53;;;;;;;8.98;4.65;;;;;;;-0.56;59.67;147533.47;1713897;83;21028;-64
2022/03/19 06:16:22;;;;;;;6.10;3.65;;;;;;;-0.59;59.36;147528.33;1714442;83;21049;-64
2022/03/19 06:18:52;;;;;;;9.05;3.62;;;;;;;-0.62;59.33;147520.61;1714147;83;21029;-64
2022/03/19 06:21:20;;;;;;;7.75;3.85;;;;;;;-0.64;58.34;147515.47;1714353;83;21474;-65
2022/03/19 06:23:49;;;;;;;9.65;3.92;;;;;;;-0.66;58.70;147509.08;1714087;83;21486;-64
2022/03/19 06:26:18;;;;;;;7.42;3.83;;;;;;;-0.70;58.65;147498.75;1714344;83;21128;-64
2022/03/19 06:28:45;;;;;;;7.85;3.60;;;;;;;-0.70;58.76;147500.06;1683958;83;21092;-64
2022/03/19 06:31:12;;;;;;;7.03;3.55;;;;;;;-0.67;58.84;147507.77;1714581;83;21013;-64
2022/03/19 06:33:42;;;;;;;6.10;3.25;;;;;;;-0.62;58.00;147520.61;1713889;83;21127;-64
2022/03/19 06:38:56;;;;;;;11.03;3.90;;;;;;;-0.55;57.75;147536.03;1696729;84;21116;-64
2022/03/19 06:41:24;;;;;;;17.62;4.55;;;;;;;-0.59;57.96;147527.06;1700875;84;21514;-64
2022/03/19 06:43:52;;;;;;;7.80;4.15;;;;;;;-0.63;58.53;147518.05;1701391;84;21053;-64
2022/03/19 06:46:19;;;;;;;8.58;4.10;;;;;;;-0.62;58.33;147520.61;1703123;84;21078;-64
2022/03/19 06:48:47;;;;;;;9.03;4.45;;;;;;;-0.59;58.80;147528.33;1700401;84;21428;-58
2022/03/19 06:51:18;;;;;;;10.85;4.78;;;;;;;-0.49;58.91;147552.77;1701070;84;21065;-64
2022/03/19 06:53:46;;;;;;;8.58;4.60;;;;;;;-0.39;58.81;147577.22;1704882;84;21063;-57
2022/03/19 06:56:13;;;;;;;10.58;4.03;;;;;;;-0.30;58.31;147600.41;1704825;84;21129;-58
2022/03/19 06:58:43;;;;;;;9.75;4.30;;;;;;;-0.26;58.05;147608.13;1703406;84;21080;-58
2022/03/19 07:01:15;;;;;;;7.95;4.12;;;;;;;-0.36;58.47;147583.67;1704416;84;21584;-58
2022/03/19 07:03:40;;;;;;;10.15;4.17;;;;;;;-0.36;59.09;147584.94;1704407;83;21065;-58
2022/03/19 07:06:07;;;;;;;6.47;3.72;;;;;;;-0.33;59.10;147592.69;1702209;84;21539;-59
2022/03/19 07:08:35;;;;;;;6.62;3.55;;;;;;;-0.33;59.02;147592.69;1700427;84;21101;-59
2022/03/19 07:11:04;;;;;;;7.40;3.70;;;;;;;-0.38;58.47;147578.53;1702383;83;21061;-60
2022/03/19 07:13:32;;;;;;;8.33;4.20;;;;;;;-0.42;58.39;147569.50;1703584;84;21657;-58
2022/03/19 07:16:01;;;;;;;8.65;4.10;;;;;;;-0.40;59.23;147574.64;1706062;83;21538;-58
2022/03/19 07:18:30;;;;;;;7.87;4.03;;;;;;;-0.27;57.38;147606.81;1705392;84;21088;-59
2022/03/19 07:20:57;;;;;;;9.43;3.90;;;;;;;-0.06;58.54;147658.28;1704646;84;21573;-59
2022/03/19 07:23:25;;;;;;;8.58;3.90;;;;;;;0.27;56.25;147741.94;1701022;84;21018;-58
2022/03/19 07:25:52;;;;;;;7.03;3.60;;;;;;;0.38;54.68;147767.72;1701092;84;21283;-64
2022/03/19 07:28:20;;;;;;;16.73;3.77;;;;;;;0.41;54.85;147775.44;1701396;84;21066;-64
2022/03/19 07:30:47;;;;;;;17.27;3.37;;;;;;;0.46;55.05;147788.30;1703746;84;21054;-64
2022/03/19 07:33:15;;;;;;;9.93;3.30;;;;;;;0.43;55.35;147781.84;1703801;83;21475;-64
2022/03/19 07:35:42;;;;;;;9.55;3.20;;;;;;;0.15;55.01;147711.08;1710334;83;21135;-64
2022/03/19 07:38:11;;;;;;;8.40;3.47;;;;;;;-0.14;55.69;147638.97;1718308;83;40046;-63
2022/03/19 07:43:25;;;;;;;7.12;3.02;;;;;;;-0.39;58.26;147575.95;1713601;83;21547;-58
2022/03/19 07:45:52;;;;;;;6.03;3.15;;;;;;;-0.45;58.41;147563.06;1713693;83;21428;-58
2022/03/19 07:48:20;;;;;;;6.25;3.08;;;;;;;-0.47;58.94;147557.91;1715338;83;21072;-63
2022/03/19 07:50:48;;;;;;;5.90;2.67;;;;;;;-0.48;59.34;147555.34;1717194;82;21136;-65
2022/03/19 07:53:15;;;;;;;7.45;3.10;;;;;;;-0.53;59.41;147542.48;1718420;83;21028;-64
2022/03/19 07:55:43;;;;;;;5.85;3.00;;;;;;;-0.59;59.98;147527.06;1718081;83;21079;-57
2022/03/19 07:58:10;;;;;;;7.62;3.27;;;;;;;-0.64;59.26;147515.47;1718857;83;21022;-57
2022/03/19 08:00:38;;;;;;;4.83;3.08;;;;;;;-0.70;59.45;147498.75;1718438;83;21108;-58
2022/03/19 08:03:06;;;;;;;10.90;3.25;;;;;;;-0.73;60.12;147493.59;1718445;83;21238;-57
2022/03/19 08:05:34;;;;;;;5.97;3.20;;;;;;;-0.74;60.45;147489.77;1718134;83;21013;-58
2022/03/19 08:08:03;;;;;;;6.53;3.15;;;;;;;-0.76;60.04;147484.63;1710421;83;21558;-57
2022/03/19 08:10:30;;;;;;;6.25;3.10;;;;;;;-0.81;60.26;147471.73;1713056;83;21076;-57
2022/03/19 08:13:05;;;;;;;5.53;3.08;;;;;;;-0.81;61.25;147473.05;1713771;83;21140;-57
2022/03/19 08:15:32;;;;;;;6.05;3.27;;;;;;;-0.75;60.84;147487.20;1708675;83;21130;-57
2022/03/19 08:18:00;;;;;;;9.85;3.40;;;;;;;-0.73;60.33;147493.59;1714023;82;21132;-65
2022/03/19 08:20:27;;;;;;;7.87;3.10;;;;;;;-0.73;60.24;147492.34;1714431;83;21601;-63
2022/03/19 08:22:55;;;;;;;4.85;2.77;;;;;;;-0.71;59.50;147497.48;1713403;83;21127;-64
2022/03/19 08:25:22;;;;;;;8.25;3.87;;;;;;;-0.72;59.43;147494.91;1712947;83;21132;-64
2022/03/19 08:27:50;;;;;;;7.55;2.95;;;;;;;-0.76;59.59;147485.89;1709219;83;21998;-64
2022/03/19 08:30:19;;;;;;;7.58;3.37;;;;;;;-0.73;60.45;147492.34;1713087;83;21039;-64
2022/03/19 08:32:46;;;;;;;5.85;3.10;;;;;;;-0.65;60.62;147512.91;1713353;83;21735;-64
2022/03/19 08:35:14;;;;;;;7.78;3.65;;;;;;;-0.56;59.92;147534.78;1713250;83;21021;-63
2022/03/19 08:37:43;;;;;;;7.83;3.33;;;;;;;-0.45;60.35;147561.80;1712915;83;21104;-64
2022/03/19 08:40:21;;;;;;;7.67;3.45;;;;;;;-0.35;60.78;147587.50;1713370;83;21851;-64
2022/03/19 08:42:53;;;;;;;8.30;4.03;;;;;;;-0.25;60.82;147610.69;1713280;83;21036;-64
2022/03/19 08:45:21;;;;;;;5.70;3.05;;;;;;;-0.11;60.99;147645.42;1713611;83;21112;-63
2022/03/19 08:47:50;;;;;;;11.70;3.40;;;;;;;-0.02;60.68;147668.56;1713341;83;21574;-64
2022/03/19 08:50:18;;;;;;;7.85;3.67;;;;;;;0.05;60.28;147685.31;1714120;83;21041;-65
2022/03/19 08:52:45;;;;;;;8.10;3.20;;;;;;;0.10;58.72;147698.17;1717830;82;21243;-65
2022/03/19 08:55:13;;;;;;;7.50;3.33;;;;;;;0.13;56.54;147705.94;1717423;83;21359;-65
2022/03/19 08:57:41;;;;;;;8.50;3.42;;;;;;;0.18;56.98;147718.80;1717617;83;21032;-58
2022/03/19 09:00:12;;;;;;;10.72;3.87;;;;;;;0.25;56.77;147736.80;1715691;82;20946;-63
2022/03/19 09:02:39;;;;;;;8.88;3.83;;;;;;;0.33;56.63;147754.81;1715170;83;20977;-57
2022/03/19 09:05:07;;;;;;;8.35;3.47;;;;;;;0.34;57.50;147758.69;1718694;83;21554;-58
2022/03/19 09:07:35;;;;;;;6.53;3.72;;;;;;;0.39;57.23;147770.28;1718970;83;21084;-64
2022/03/19 09:10:04;;;;;;;5.85;3.50;;;;;;;0.42;56.39;147779.27;1717741;82;21061;-64
2022/03/19 09:12:33;;;;;;;5.47;3.35;;;;;;;0.46;56.45;147788.30;1717872;83;21082;-64
2022/03/19 09:15:01;;;;;;;7.62;3.25;;;;;;;0.48;56.16;147793.44;1714409;83;21084;-64
2022/03/19 09:17:32;;;;;;;6.03;3.52;;;;;;;0.47;55.07;147790.87;1714633;82;21156;-63
2022/03/19 09:20:00;;;;;;;7.90;3.70;;;;;;;0.44;55.17;147783.16;1714545;83;21086;-64
2022/03/19 09:22:30;;;;;;;14.35;3.80;;;;;;;0.53;55.47;147806.31;1714156;83;21085;-65
2022/03/19 09:24:58;;;;;;;5.53;3.22;;;;;;;0.66;55.22;147837.23;1714090;83;21329;-64
2022/03/19 09:27:25;;;;;;;9.35;3.70;;;;;;;0.75;54.29;147859.12;1714140;83;21021;-59
2022/03/19 09:29:53;;;;;;;8.60;3.98;;;;;;;0.82;53.53;147877.14;1715577;83;21237;-64
2022/03/19 09:32:20;;;;;;;6.92;3.80;;;;;;;0.87;54.53;147890.02;1717023;83;21526;-59
2022/03/19 09:34:49;;;;;;;5.87;3.40;;;;;;;0.87;52.98;147888.75;1713822;83;21065;-59
2022/03/19 09:37:18;;;;;;;7.62;3.80;;;;;;;0.84;53.26;147882.28;1713373;82;21017;-58
2022/03/19 09:39:49;;;;;;;7.92;3.87;;;;;;;0.82;53.62;147878.45;1718692;82;21369;-59
2022/03/19 09:42:17;;;;;;;6.17;3.30;;;;;;;0.82;54.38;147877.14;1715144;83;21104;-64
2022/03/19 09:44:45;;;;;;;8.10;3.55;;;;;;;0.87;54.39;147888.75;1719125;82;21068;-64
2022/03/19 09:47:14;;;;;;;7.08;3.17;;;;;;;0.89;53.53;147895.20;1691528;83;21085;-63
2022/03/19 09:49:41;;;;;;;6.72;3.27;;;;;;;0.93;53.69;147905.50;1735438;82;21066;-65
2022/03/19 09:52:11;;;;;;;6.35;3.12;;;;;;;0.91;54.27;147899.03;1721523;82;21478;-57
2022/03/19 09:54:39;;;;;;;7.83;3.55;;;;;;;0.90;53.89;147896.47;1713638;82;21094;-58
2022/03/19 09:57:06;;;;;;;7.80;3.60;;;;;;;0.94;53.52;147906.77;1718730;82;21147;-58
2022/03/19 09:59:36;;;;;;;6.50;3.80;;;;;;;0.98;52.98;147917.06;1716488;82;21349;-58
2022/03/19 10:02:06;;;;;;;8.05;3.67;;;;;;;1.03;52.99;147929.97;1725323;82;21250;-56
2022/03/19 10:04:39;;;;;;;8.10;3.37;;;;;;;1.07;53.73;147940.27;1721342;82;21119;-57
2022/03/19 10:09:56;;;;;;;6.72;3.80;;;;;;;1.24;51.91;147981.50;1717877;82;21123;-65
2022/03/19 10:12:28;;;;;;;5.55;3.60;;;;;;;1.26;52.05;147987.91;1715093;82;21005;-65
2022/03/19 10:14:56;;;;;;;8.15;3.42;;;;;;;1.29;52.17;147995.64;1726022;81;21092;-63
2022/03/19 10:17:33;;;;;;;8.33;3.12;;;;;;;1.29;51.91;147994.38;1721268;82;21032;-57
2022/03/19 10:20:11;;;;;;;10.03;3.37;;;;;;;1.31;50.11;147999.53;1725980;82;21141;-58
2022/03/19 10:22:44;;;;;;;7.55;3.25;;;;;;;1.42;50.17;148026.59;1714750;82;21069;-57
2022/03/19 10:25:17;;;;;;;6.60;3.10;;;;;;;1.51;51.88;148049.75;1722043;82;21013;-58
2022/03/19 10:27:44;;;;;;;6.50;3.30;;;;;;;1.56;50.60;148061.37;1721795;82;21068;-64
2022/03/19 10:30:16;;;;;;;7.78;2.87;;;;;;;1.57;50.97;148065.25;1722981;82;21127;-65
2022/03/19 10:32:51;;;;;;;6.00;2.60;;;;;;;1.58;49.35;148066.52;1716932;82;21060;-58
2022/03/19 10:35:33;;;;;;;11.43;2.90;;;;;;;1.61;49.31;148074.23;1717700;82;21123;-64
2022/03/19 10:38:05;;;;;;;5.10;2.52;;;;;;;1.62;49.79;148076.81;1719403;83;21085;-63
2022/03/19 10:40:43;;;;;;;4.17;2.08;;;;;;;1.65;50.47;148084.55;1718397;83;21084;-64
2022/03/19 10:43:11;;;;;;;5.03;2.27;;;;;;;1.69;49.70;148094.89;1718427;83;20998;-64
2022/03/19 10:45:45;;;;;;;4.50;2.12;;;;;;;1.73;48.97;148103.88;1719810;83;21774;-64
2022/03/19 10:48:18;;;;;;;6.17;2.02;;;;;;;1.76;48.58;148111.61;1718685;83;21439;-57
2022/03/19 10:50:46;;;;;;;6.67;2.00;;;;;;;1.84;47.81;148130.95;1716761;83;21043;-58
2022/03/19 10:53:13;;;;;;;5.25;2.22;;;;;;;1.91;47.09;148147.72;1715809;82;20977;-57
2022/03/19 10:55:41;;;;;;;3.37;2.08;;;;;;;1.96;46.36;148161.91;1713863;83;21144;-57
2022/03/19 10:58:08;;;;;;;6.75;2.67;;;;;;;2.02;46.89;148174.78;1714054;83;22731;-57
2022/03/19 11:00:35;;;;;;;5.28;2.12;;;;;;;;;;1680166;83;21986;-57
2022/03/19 11:03:07;;;;;;;4.05;1.72;;;;;;;2.07;45.84;148187.67;1719485;83;21103;-57
2022/03/19 11:05:35;;;;;;;4.65;1.95;;;;;;;2.07;45.92;148187.67;1678797;83;21134;-57
2022/03/19 11:08:04;;;;;;;3.92;2.00;;;;;;;2.08;45.92;148190.25;1715741;83;21126;-58
2022/03/19 11:10:35;;;;;;;4.03;2.02;;;;;;;2.08;46.40;148190.25;1714933;83;21522;-58
2022/03/19 11:13:03;;;;;;;4.90;1.80;;;;;;;2.09;46.57;148192.81;1716845;83;21037;-58
2022/03/19 11:15:34;;;;;;;4.78;1.67;;;;;;;2.14;45.86;148205.75;1717851;83;21716;-57
2022/03/19 11:18:09;;;;;;;4.35;2.15;;;;;;;2.19;44.84;148218.62;1717634;83;21056;-57
2022/03/19 11:20:36;;;;;;;3.45;1.70;;;;;;;2.20;44.51;148221.20;1714731;83;21127;-57
2022/03/19 11:23:05;;;;;;;4.85;1.60;;;;;;;2.23;44.87;148227.67;1714291;83;21048;-59
2022/03/19 11:25:45;;;;;;;3.25;1.55;;;;;;;2.26;45.43;148236.66;1714007;83;20977;-58
2022/03/19 11:28:13;;;;;;;5.65;1.85;;;;;;;2.32;44.47;148249.55;1714540;83;21266;-59
2022/03/19 11:30:46;;;;;;;3.20;1.70;;;;;;;2.36;44.68;148261.16;1714012;83;22163;-57
2022/03/19 11:33:19;;;;;;;3.55;1.60;;;;;;;2.40;44.81;148270.20;1714290;83;21001;-58
2022/03/19 11:36:01;;;;;;;8.25;2.10;;;;;;;2.44;44.95;148280.52;1714115;83;21760;-57
2022/03/19 11:38:30;;;;;;;5.70;1.85;;;;;;;2.48;45.20;148290.83;1722358;82;21017;-58
2022/03/19 11:40:58;;;;;;;4.53;1.85;;;;;;;2.52;45.58;148301.13;1713728;82;21057;-63
2022/03/19 11:43:37;;;;;;;7.60;2.17;;;;;;;2.54;45.83;148306.34;1720605;82;21056;-57
2022/03/19 11:46:06;;;;;;;2.85;1.65;;;;;;;2.57;45.85;148314.06;1720150;82;21518;-58
2022/03/19 11:48:56;;;;;;;6.92;1.87;;;;;;;2.63;45.08;148326.95;1722556;82;21755;-63
2022/03/19 11:51:33;;;;;;;3.20;1.80;;;;;;;2.63;43.77;148326.95;1723872;81;21475;-57